createdAt,value
2023-05-17T00:02:12.069Z,17.70
2023-05-17T00:04:39.717Z,24.17
2023-05-17T00:07:07.407Z,20.73
2023-05-17T00:09:35.069Z,21.53
2023-05-17T00:12:04.267Z,21.10
2023-05-17T00:14:31.841Z,20.30
2023-05-17T00:16:59.440Z,22.43
2023-05-17T00:19:27.062Z,19.00
2023-05-17T00:21:54.732Z,22.03
2023-05-17T00:24:22.262Z,21.63
2023-05-17T00:26:49.894Z,27.13
2023-05-17T00:29:19.251Z,21.73
2023-05-17T00:31:46.849Z,23.53
2023-05-17T00:34:14.535Z,26.70
2023-05-17T00:36:42.178Z,25.40
2023-05-17T00:39:09.911Z,30.83
2023-05-17T00:41:38.226Z,20.27
2023-05-17T00:44:06.259Z,21.00
2023-05-17T00:46:35.253Z,25.57
2023-05-17T00:49:03.507Z,22.63
2023-05-17T00:51:31.619Z,25.70
2023-05-17T00:53:59.304Z,26.60
2023-05-17T00:56:26.912Z,22.70
2023-05-17T00:58:55.427Z,21.17
2023-05-17T01:01:23.358Z,33.13
2023-05-17T01:03:53.014Z,20.20
2023-05-17T01:06:20.709Z,16.53
2023-05-17T01:08:48.604Z,21.30
2023-05-17T01:11:33.515Z,23.97
2023-05-17T01:14:10.968Z,17.30
2023-05-17T01:16:42.278Z,17.07
2023-05-17T01:19:21.160Z,22.20
2023-05-17T01:21:59.972Z,31.30
2023-05-17T01:24:31.427Z,28.07
2023-05-17T01:27:01.236Z,23.33
2023-05-17T01:29:30.780Z,25.00
2023-05-17T01:31:58.745Z,21.93
2023-05-17T01:34:26.922Z,21.70
2023-05-17T01:36:54.694Z,18.50
2023-05-17T01:39:23.236Z,29.00
2023-05-17T01:41:56.634Z,27.90
2023-05-17T01:44:32.971Z,24.00
2023-05-17T01:47:05.506Z,20.73
2023-05-17T01:49:37.505Z,22.80
2023-05-17T01:52:10.077Z,15.33
2023-05-17T01:54:39.752Z,17.53
2023-05-17T01:57:08.270Z,19.73
2023-05-17T01:59:39.620Z,22.03
2023-05-17T02:02:08.880Z,19.70
2023-05-17T02:04:37.308Z,21.47
2023-05-17T02:07:05.344Z,22.13
2023-05-17T02:09:33.073Z,16.90
2023-05-17T02:12:00.795Z,21.53
2023-05-17T02:14:28.612Z,14.97
2023-05-17T02:16:57.643Z,12.63
2023-05-17T02:19:25.339Z,15.93
2023-05-17T02:21:52.954Z,19.83
2023-05-17T02:24:20.677Z,9.27
2023-05-17T02:26:48.649Z,16.37
2023-05-17T02:29:16.272Z,14.20
2023-05-17T02:31:44.048Z,18.80
2023-05-17T02:34:13.153Z,18.03
2023-05-17T02:36:41.298Z,7.23
2023-05-17T02:39:08.888Z,18.53
2023-05-17T02:41:36.492Z,23.00
2023-05-17T02:44:04.268Z,28.20
2023-05-17T02:46:31.919Z,10.27
2023-05-17T02:48:59.522Z,24.67
2023-05-17T02:51:28.488Z,20.90
2023-05-17T02:53:57.888Z,9.47
2023-05-17T02:56:25.748Z,18.10
2023-05-17T02:58:55.488Z,17.97
2023-05-17T03:01:24.397Z,16.57
2023-05-17T03:03:52.752Z,14.23
2023-05-17T03:06:20.976Z,17.33
2023-05-17T03:08:50.800Z,12.07
2023-05-17T03:11:18.441Z,13.10
2023-05-17T03:13:51.404Z,16.27
2023-05-17T03:16:22.098Z,14.17
2023-05-17T03:18:51.558Z,17.17
2023-05-17T03:21:19.286Z,12.43
2023-05-17T03:23:47.751Z,17.93
2023-05-17T03:26:16.856Z,12.30
2023-05-17T03:28:49.350Z,14.00
2023-05-17T03:31:18.996Z,13.03
2023-05-17T03:33:47.108Z,15.13
2023-05-17T03:36:15.636Z,11.17
2023-05-17T03:38:43.629Z,13.53
2023-05-17T03:41:11.753Z,20.27
2023-05-17T03:43:41.510Z,12.23
2023-05-17T03:46:11.689Z,20.77
2023-05-17T03:48:39.404Z,20.13
2023-05-17T03:51:07.574Z,20.50
2023-05-17T03:53:41.030Z,11.23
2023-05-17T03:56:08.793Z,19.20
2023-05-17T03:58:37.436Z,25.93
2023-05-17T04:01:07.964Z,11.67
2023-05-17T04:03:37.371Z,13.70
2023-05-17T04:06:07.314Z,16.03
2023-05-17T04:08:36.212Z,17.40
2023-05-17T04:11:10.211Z,28.67
2023-05-17T04:13:38.366Z,18.07
2023-05-17T04:16:08.602Z,11.30
2023-05-17T04:18:39.150Z,20.67
2023-05-17T04:21:07.544Z,23.50
2023-05-17T04:23:36.326Z,13.83
2023-05-17T04:26:04.827Z,15.37
2023-05-17T04:28:38.018Z,20.00
2023-05-17T04:31:09.469Z,14.97
2023-05-17T04:33:37.211Z,13.93
2023-05-17T04:36:07.485Z,17.77
2023-05-17T04:38:36.110Z,15.43
2023-05-17T04:41:05.118Z,18.40
2023-05-17T04:43:34.957Z,13.17
2023-05-17T04:46:06.072Z,28.43
2023-05-17T04:48:36.002Z,22.03
2023-05-17T04:51:04.381Z,19.20
2023-05-17T04:53:33.117Z,10.97
2023-05-17T04:56:05.135Z,14.97
2023-05-17T04:58:32.827Z,15.87
2023-05-17T05:01:03.405Z,14.20
2023-05-17T05:03:31.222Z,14.00
2023-05-17T05:06:00.993Z,16.67
2023-05-17T05:08:29.392Z,13.97
2023-05-17T05:10:57.777Z,12.77
2023-05-17T05:13:26.446Z,17.30
2023-05-17T05:15:55.292Z,15.20
2023-05-17T05:18:23.114Z,15.23
2023-05-17T05:20:52.047Z,13.60
2023-05-17T05:23:21.629Z,24.13
2023-05-17T05:25:50.182Z,33.13
2023-05-17T05:28:18.452Z,21.00
2023-05-17T05:30:46.233Z,23.33
2023-05-17T05:33:15.322Z,20.77
2023-05-17T05:35:43.568Z,22.33
2023-05-17T05:38:11.417Z,21.23
2023-05-17T05:40:40.629Z,17.83
2023-05-17T05:43:08.451Z,28.67
2023-05-17T05:45:36.220Z,18.80
2023-05-17T05:48:05.562Z,17.87
2023-05-17T05:50:33.373Z,24.67
2023-05-17T05:53:17.178Z,16.07
2023-05-17T05:55:59.915Z,18.97
2023-05-17T05:58:28.225Z,12.03
2023-05-17T06:00:57.305Z,16.03
2023-05-17T06:03:28.407Z,14.33
2023-05-17T06:05:56.424Z,11.27
2023-05-17T06:08:24.505Z,13.40
2023-05-17T06:10:54.599Z,14.60
2023-05-17T06:13:23.983Z,17.93
2023-05-17T06:15:51.930Z,19.53
2023-05-17T06:18:19.863Z,10.47
2023-05-17T06:20:47.974Z,17.00
2023-05-17T06:23:17.165Z,19.23
2023-05-17T06:25:45.311Z,9.83
2023-05-17T06:28:13.023Z,18.93
2023-05-17T06:30:42.159Z,10.67
2023-05-17T06:33:10.343Z,12.13
2023-05-17T06:35:54.770Z,12.73
2023-05-17T06:38:23.616Z,12.77
2023-05-17T06:40:59.755Z,10.97
2023-05-17T06:43:30.074Z,14.93
2023-05-17T06:45:59.074Z,12.33
2023-05-17T06:48:27.133Z,7.33
2023-05-17T06:50:54.840Z,14.40
2023-05-17T06:53:22.503Z,9.73
2023-05-17T06:55:50.256Z,22.60
2023-05-17T06:58:18.156Z,14.33
2023-05-17T07:00:46.241Z,12.90
2023-05-17T07:03:15.770Z,13.70
2023-05-17T07:05:44.080Z,16.03
2023-05-17T07:08:11.815Z,6.47
2023-05-17T07:10:39.630Z,8.77
2023-05-17T07:13:08.367Z,21.20
2023-05-17T07:15:36.006Z,12.13
2023-05-17T07:18:03.887Z,13.80
2023-05-17T07:20:33.071Z,15.63
2023-05-17T07:23:01.221Z,7.40
2023-05-17T07:25:29.209Z,7.63
2023-05-17T07:27:57.448Z,15.53
2023-05-17T07:30:25.520Z,8.47
2023-05-17T07:32:56.233Z,10.10
2023-05-17T07:35:24.036Z,10.90
2023-05-17T07:37:53.130Z,28.57
2023-05-17T07:40:22.007Z,9.70
2023-05-17T07:42:50.118Z,9.40
2023-05-17T07:45:18.607Z,9.83
2023-05-17T07:47:48.026Z,9.20
2023-05-17T07:50:16.104Z,16.43
2023-05-17T07:52:44.012Z,11.27
2023-05-17T07:55:16.663Z,11.27
2023-05-17T07:57:45.108Z,11.37
2023-05-17T08:00:14.000Z,10.90
2023-05-17T08:02:42.272Z,6.57
2023-05-17T08:05:11.231Z,12.17
2023-05-17T08:07:39.110Z,8.30
2023-05-17T08:10:07.808Z,10.87
2023-05-17T08:12:37.023Z,12.77
2023-05-17T08:15:05.325Z,10.20
2023-05-17T08:17:33.122Z,12.80
2023-05-17T08:20:00.933Z,10.33
2023-05-17T08:22:28.782Z,12.33
2023-05-17T08:24:56.711Z,15.57
2023-05-17T08:27:26.023Z,9.53
2023-05-17T08:29:57.735Z,12.67
2023-05-17T08:32:25.955Z,11.60
2023-05-17T08:34:54.556Z,12.10
2023-05-17T08:37:24.985Z,9.30
2023-05-17T08:39:53.028Z,14.90
2023-05-17T08:42:25.160Z,11.53
2023-05-17T08:44:53.546Z,14.17
2023-05-17T08:47:29.757Z,15.30
2023-05-17T08:50:00.715Z,14.57
2023-05-17T08:52:31.084Z,17.00
2023-05-17T08:54:59.254Z,8.03
2023-05-17T08:57:28.007Z,12.93
2023-05-17T08:59:57.137Z,12.67
2023-05-17T09:02:27.080Z,14.73
2023-05-17T09:04:56.077Z,11.30
2023-05-17T09:07:24.185Z,14.30
2023-05-17T09:09:53.380Z,15.50
2023-05-17T09:12:23.410Z,11.17
2023-05-17T09:14:52.583Z,13.10
2023-05-17T09:17:24.397Z,9.50
2023-05-17T09:19:53.680Z,12.53
2023-05-17T09:22:22.266Z,10.73
2023-05-17T09:24:50.704Z,9.90
2023-05-17T09:27:19.506Z,18.80
2023-05-17T09:29:47.969Z,13.43
2023-05-17T09:32:17.572Z,10.90
2023-05-17T09:34:48.294Z,15.17
2023-05-17T09:37:18.619Z,11.30
2023-05-17T09:39:47.923Z,13.73
2023-05-17T09:42:16.668Z,10.53
2023-05-17T09:44:53.197Z,11.00
2023-05-17T09:47:28.490Z,13.90
2023-05-17T09:49:58.014Z,12.43
2023-05-17T09:52:31.711Z,14.67
2023-05-17T09:55:00.868Z,10.37
2023-05-17T09:57:29.622Z,12.17
2023-05-17T09:59:58.729Z,20.03
2023-05-17T10:02:29.264Z,10.00
2023-05-17T10:04:58.247Z,10.33
2023-05-17T10:07:28.232Z,14.20
2023-05-17T10:09:57.467Z,9.83
2023-05-17T10:12:29.523Z,12.43
2023-05-17T10:14:59.941Z,13.20
2023-05-17T10:17:29.687Z,10.13
2023-05-17T10:19:58.185Z,10.27
2023-05-17T10:22:29.116Z,11.57
2023-05-17T10:24:58.491Z,9.67
2023-05-17T10:27:26.738Z,8.93
2023-05-17T10:29:55.259Z,9.30
2023-05-17T10:32:26.947Z,7.93
2023-05-17T10:35:09.176Z,12.90
2023-05-17T10:37:41.360Z,8.20
2023-05-17T10:40:13.265Z,5.27
2023-05-17T10:42:42.442Z,13.87
2023-05-17T10:45:10.935Z,7.40
2023-05-17T10:47:42.728Z,13.10
2023-05-17T10:50:13.119Z,8.03
2023-05-17T10:52:47.791Z,9.77
2023-05-17T10:55:19.677Z,8.70
2023-05-17T10:58:10.437Z,8.67
2023-05-17T11:00:42.211Z,5.40
2023-05-17T11:03:15.403Z,5.43
2023-05-17T11:05:44.749Z,6.80
2023-05-17T11:08:18.551Z,10.33
2023-05-17T11:11:12.084Z,8.67
2023-05-17T11:13:53.797Z,8.17
2023-05-17T11:16:29.472Z,13.30
2023-05-17T11:18:58.372Z,6.13
2023-05-17T11:21:29.715Z,9.20
2023-05-17T11:24:03.811Z,6.70
2023-05-17T11:26:35.198Z,4.37
2023-05-17T11:29:04.218Z,7.30
2023-05-17T11:31:33.537Z,6.13
2023-05-17T11:34:01.779Z,7.00
2023-05-17T11:36:29.564Z,8.13
2023-05-17T11:39:23.357Z,11.93
2023-05-17T11:41:52.223Z,11.10
2023-05-17T11:44:25.386Z,9.73
2023-05-17T11:46:53.355Z,7.60
2023-05-17T11:49:33.994Z,9.77
2023-05-17T11:52:04.212Z,6.77
2023-05-17T11:54:33.692Z,7.40
2023-05-17T11:57:02.836Z,10.13
2023-05-17T11:59:30.941Z,8.20
2023-05-17T12:01:58.937Z,8.63
2023-05-17T12:04:28.309Z,6.90
2023-05-17T12:06:57.958Z,5.40
2023-05-17T12:09:26.613Z,7.97
2023-05-17T12:11:56.533Z,9.50
2023-05-17T12:14:25.329Z,7.97
2023-05-17T12:16:56.297Z,5.97
2023-05-17T12:19:29.828Z,13.70
2023-05-17T12:22:07.565Z,9.90
2023-05-17T12:24:39.683Z,7.03
2023-05-17T12:27:09.443Z,15.07
2023-05-17T12:29:37.456Z,13.50
2023-05-17T12:32:06.347Z,11.03
2023-05-17T12:34:34.246Z,8.63
2023-05-17T12:37:02.152Z,7.00
2023-05-17T12:39:31.912Z,18.73
2023-05-17T12:41:59.820Z,5.90
2023-05-17T12:44:28.795Z,10.83
2023-05-17T12:46:57.836Z,12.17
2023-05-17T12:49:25.665Z,11.90
2023-05-17T12:51:53.437Z,10.37
2023-05-17T12:54:28.369Z,10.03
2023-05-17T12:56:56.544Z,9.67
2023-05-17T12:59:25.964Z,8.17
2023-05-17T13:01:56.610Z,12.93
2023-05-17T13:04:32.667Z,10.33
2023-05-17T13:07:02.303Z,11.20
2023-05-17T13:09:31.260Z,7.23
2023-05-17T13:12:00.974Z,7.70
2023-05-17T13:14:36.513Z,11.10
2023-05-17T13:17:06.822Z,10.17
2023-05-17T13:19:36.045Z,8.70
2023-05-17T13:22:04.799Z,6.60
2023-05-17T13:24:34.705Z,6.30
2023-05-17T13:27:02.885Z,12.90
2023-05-17T13:29:38.883Z,8.50
2023-05-17T13:32:11.520Z,6.07
2023-05-17T13:34:39.456Z,9.10
2023-05-17T13:37:11.145Z,13.50
2023-05-17T13:39:39.664Z,7.33
2023-05-17T13:42:07.952Z,6.87
2023-05-17T13:44:35.877Z,6.10
2023-05-17T13:47:03.893Z,6.30
2023-05-17T13:49:33.070Z,12.17
2023-05-17T13:52:01.084Z,15.10
2023-05-17T13:54:28.922Z,12.27
2023-05-17T13:57:00.106Z,9.27
2023-05-17T13:59:28.445Z,12.10
2023-05-17T14:01:57.763Z,13.97
2023-05-17T14:04:26.399Z,9.73
2023-05-17T14:06:56.940Z,9.03
2023-05-17T14:09:24.809Z,9.63
2023-05-17T14:11:52.856Z,11.40
2023-05-17T14:14:20.930Z,15.33
2023-05-17T14:16:48.809Z,12.40
2023-05-17T14:19:16.765Z,10.83
2023-05-17T14:21:44.668Z,30.33
2023-05-17T14:24:14.050Z,8.00
2023-05-17T14:26:42.434Z,8.00
2023-05-17T14:29:10.215Z,16.40
2023-05-17T14:31:37.956Z,14.47
2023-05-17T14:34:05.821Z,12.30
2023-05-17T14:36:36.233Z,11.87
2023-05-17T14:39:04.408Z,13.03
2023-05-17T14:41:33.529Z,15.67
2023-05-17T14:44:01.333Z,17.30
2023-05-17T14:46:29.157Z,6.90
2023-05-17T14:48:57.194Z,6.30
2023-05-17T14:51:25.115Z,13.13
2023-05-17T14:53:54.235Z,9.57
2023-05-17T14:56:22.340Z,9.27
2023-05-17T14:58:51.913Z,7.73
2023-05-17T15:01:19.874Z,16.77
2023-05-17T15:03:47.742Z,10.47
2023-05-17T15:06:15.531Z,18.17
2023-05-17T15:08:43.289Z,14.13
2023-05-17T15:11:11.177Z,14.10
2023-05-17T15:13:39.435Z,11.00
2023-05-17T15:16:12.488Z,11.70
2023-05-17T15:18:40.355Z,15.77
2023-05-17T15:21:08.083Z,13.67
2023-05-17T15:23:35.804Z,13.37
2023-05-17T15:26:03.705Z,11.20
2023-05-17T15:28:31.834Z,12.73
2023-05-17T15:31:03.265Z,8.70
2023-05-17T15:33:32.482Z,8.80
2023-05-17T15:36:00.424Z,10.27
2023-05-17T15:38:28.151Z,8.77
2023-05-17T15:41:03.888Z,10.10
2023-05-17T15:43:32.639Z,7.40
2023-05-17T15:46:00.556Z,12.07
2023-05-17T15:48:29.246Z,7.20
2023-05-17T15:50:58.900Z,7.10
2023-05-17T15:53:27.820Z,9.60
2023-05-17T15:55:55.524Z,8.27
2023-05-17T15:58:25.421Z,11.27
2023-05-17T16:00:53.246Z,13.40
2023-05-17T16:03:21.346Z,14.53
2023-05-17T16:05:49.047Z,10.80
2023-05-17T16:08:18.138Z,10.50
2023-05-17T16:10:45.949Z,7.90
2023-05-17T16:13:13.791Z,8.70
2023-05-17T16:15:41.522Z,9.10
2023-05-17T16:18:10.625Z,10.97
2023-05-17T16:20:38.766Z,12.80
2023-05-17T16:23:07.293Z,13.63
2023-05-17T16:25:37.639Z,8.90
2023-05-17T16:28:05.425Z,11.17
2023-05-17T16:30:33.174Z,10.70
2023-05-17T16:33:01.459Z,11.67
2023-05-17T16:35:29.453Z,6.50
2023-05-17T16:37:57.262Z,10.00
2023-05-17T16:40:25.000Z,9.83
2023-05-17T16:42:54.081Z,13.10
2023-05-17T16:45:21.852Z,9.00
2023-05-17T16:47:49.842Z,9.73
2023-05-17T16:50:17.542Z,9.00
2023-05-17T16:52:45.418Z,8.10
2023-05-17T16:55:13.335Z,10.27
2023-05-17T16:57:42.004Z,8.27
2023-05-17T17:00:13.042Z,10.80
2023-05-17T17:02:40.982Z,6.93
2023-05-17T17:05:10.315Z,8.20
2023-05-17T17:07:38.017Z,12.63
2023-05-17T17:10:06.439Z,13.10
2023-05-17T17:12:34.223Z,16.27
2023-05-17T17:15:02.234Z,7.97
2023-05-17T17:17:32.002Z,10.33
2023-05-17T17:19:59.849Z,10.50
2023-05-17T17:22:27.686Z,11.30
2023-05-17T17:24:55.610Z,9.77
2023-05-17T17:27:23.401Z,6.40
2023-05-17T17:29:51.482Z,15.43
2023-05-17T17:32:19.473Z,11.10
2023-05-17T17:34:48.842Z,10.13
2023-05-17T17:37:16.810Z,5.77
2023-05-17T17:39:44.840Z,8.43
2023-05-17T17:42:13.023Z,10.50
2023-05-17T17:44:40.948Z,8.37
2023-05-17T17:47:09.566Z,11.00
2023-05-17T17:49:37.373Z,5.83
2023-05-17T17:52:06.843Z,12.27
2023-05-17T17:54:34.703Z,13.23
2023-05-17T17:57:02.998Z,11.20
2023-05-17T17:59:30.871Z,8.10
2023-05-17T18:01:59.623Z,7.03
2023-05-17T18:04:27.763Z,12.63
2023-05-17T18:06:57.052Z,7.80
2023-05-17T18:09:26.299Z,10.33
2023-05-17T18:11:54.149Z,6.23
2023-05-17T18:14:21.979Z,7.07
2023-05-17T18:16:51.031Z,6.70
2023-05-17T18:19:18.953Z,5.40
2023-05-17T18:21:46.854Z,7.73
2023-05-17T18:24:14.566Z,10.83
2023-05-17T18:26:43.686Z,8.73
2023-05-17T18:29:11.482Z,6.93
2023-05-17T18:31:39.371Z,8.13
2023-05-17T18:34:07.434Z,10.77
2023-05-17T18:36:35.300Z,13.83
2023-05-17T18:39:03.022Z,11.70
2023-05-17T18:41:32.011Z,12.10
2023-05-17T18:44:03.126Z,12.20
2023-05-17T18:46:31.850Z,12.23
2023-05-17T18:49:00.660Z,13.77
2023-05-17T18:51:28.986Z,15.37
2023-05-17T18:53:57.316Z,9.47
2023-05-17T18:56:26.888Z,10.27
2023-05-17T18:58:54.945Z,11.10
2023-05-17T19:01:24.373Z,5.97
2023-05-17T19:03:55.404Z,7.23
2023-05-17T19:06:24.218Z,12.00
2023-05-17T19:08:52.823Z,12.20
2023-05-17T19:11:21.486Z,8.50
2023-05-17T19:13:50.578Z,7.53
2023-05-17T19:16:18.706Z,12.10
2023-05-17T19:18:48.537Z,16.33
2023-05-17T19:21:17.154Z,11.60
2023-05-17T19:23:45.771Z,9.87
2023-05-17T19:26:14.178Z,6.90
2023-05-17T19:28:42.969Z,10.53
2023-05-17T19:31:12.182Z,8.67
2023-05-17T19:33:41.073Z,10.67
2023-05-17T19:36:10.924Z,8.37
2023-05-17T19:38:39.389Z,5.60
2023-05-17T19:41:10.631Z,6.50
2023-05-17T19:43:41.221Z,7.97
2023-05-17T19:46:11.744Z,10.80
2023-05-17T19:48:40.669Z,12.07
2023-05-17T19:51:10.179Z,9.60
2023-05-17T19:53:51.652Z,7.63
2023-05-17T19:56:21.549Z,5.53
2023-05-17T19:58:49.577Z,8.90
2023-05-17T20:01:17.380Z,9.83
2023-05-17T20:03:45.493Z,6.07
2023-05-17T20:06:15.233Z,6.93
2023-05-17T20:08:43.194Z,12.90
2023-05-17T20:11:11.073Z,14.63
2023-05-17T20:13:40.552Z,13.73
2023-05-17T20:16:12.670Z,6.00
2023-05-17T20:18:42.523Z,8.20
2023-05-17T20:21:12.699Z,11.07
2023-05-17T20:23:42.432Z,8.20
2023-05-17T20:26:16.173Z,8.03
2023-05-17T20:28:44.173Z,11.40
2023-05-17T20:31:12.447Z,7.63
2023-05-17T20:33:40.442Z,12.00
2023-05-17T20:36:10.074Z,10.50
2023-05-17T20:38:37.993Z,10.37
2023-05-17T20:41:07.608Z,6.90
2023-05-17T20:43:36.837Z,9.83
2023-05-17T20:46:07.449Z,9.60
2023-05-17T20:48:35.675Z,7.90
2023-05-17T20:51:03.748Z,7.93
2023-05-17T20:53:31.824Z,5.77
2023-05-17T20:55:59.971Z,12.83
2023-05-17T20:58:29.618Z,9.00
2023-05-17T21:00:57.725Z,10.87
2023-05-17T21:03:28.324Z,17.50
2023-05-17T21:05:56.769Z,10.53
2023-05-17T21:08:24.610Z,11.17
2023-05-17T21:10:52.551Z,10.40
2023-05-17T21:13:21.698Z,8.27
2023-05-17T21:15:51.066Z,9.27
2023-05-17T21:18:19.037Z,13.10
2023-05-17T21:20:47.074Z,11.63
2023-05-17T21:23:14.964Z,6.10
2023-05-17T21:25:44.295Z,7.50
2023-05-17T21:28:12.275Z,9.00
2023-05-17T21:30:40.385Z,8.13
2023-05-17T21:33:09.700Z,9.77
2023-05-17T21:35:37.590Z,9.80
2023-05-17T21:38:05.716Z,13.93
2023-05-17T21:40:33.849Z,13.53
2023-05-17T21:43:02.026Z,10.70
2023-05-17T21:45:32.825Z,9.30
2023-05-17T21:48:00.968Z,13.80
2023-05-17T21:50:31.067Z,11.13
2023-05-17T21:52:58.969Z,12.00
2023-05-17T21:55:28.298Z,10.33
2023-05-17T21:57:57.971Z,10.43
2023-05-17T22:00:28.815Z,10.60
2023-05-17T22:02:56.915Z,16.43
2023-05-17T22:05:25.074Z,9.73
2023-05-17T22:07:54.260Z,9.50
2023-05-17T22:10:24.404Z,9.23
2023-05-17T22:12:54.230Z,16.47
2023-05-17T22:15:23.195Z,11.73
2023-05-17T22:17:52.963Z,10.63
2023-05-17T22:20:23.651Z,9.40
2023-05-17T22:22:51.677Z,10.17
2023-05-17T22:25:20.809Z,9.50
2023-05-17T22:27:48.606Z,10.30
2023-05-17T22:30:16.790Z,9.10
2023-05-17T22:32:44.645Z,12.40
2023-05-17T22:35:13.014Z,11.30
2023-05-17T22:37:42.863Z,5.80
2023-05-17T22:40:11.987Z,12.23
2023-05-17T22:42:43.182Z,8.37
2023-05-17T22:45:12.658Z,8.70
2023-05-17T22:47:42.618Z,10.13
2023-05-17T22:50:12.135Z,5.33
2023-05-17T22:52:42.800Z,10.80
2023-05-17T22:55:11.383Z,6.43
2023-05-17T22:57:40.942Z,4.30
2023-05-17T23:00:11.618Z,17.60
2023-05-17T23:02:40.043Z,9.17
2023-05-17T23:05:08.434Z,8.23
2023-05-17T23:07:38.556Z,10.57
2023-05-17T23:10:08.800Z,12.20
2023-05-17T23:12:37.603Z,7.33
2023-05-17T23:15:08.300Z,20.03
2023-05-17T23:17:36.484Z,10.33
2023-05-17T23:20:08.656Z,10.60
2023-05-17T23:22:36.763Z,8.67
2023-05-17T23:25:05.944Z,10.40
2023-05-17T23:27:33.988Z,8.30
2023-05-17T23:30:02.436Z,7.73
2023-05-17T23:32:32.619Z,14.33
2023-05-17T23:35:04.000Z,14.60
2023-05-17T23:37:32.098Z,12.77
2023-05-17T23:40:00.346Z,7.50
2023-05-17T23:42:29.331Z,9.33
2023-05-17T23:44:57.262Z,9.53
2023-05-17T23:47:25.472Z,14.13
2023-05-17T23:49:54.717Z,8.70
2023-05-17T23:52:24.016Z,10.47
2023-05-17T23:54:51.935Z,13.07
2023-05-17T23:57:19.818Z,11.77
2023-05-17T23:59:47.568Z,8.77
